Time;durP1;ratioP1;P1;durP2;ratioP2;P2;SDS_P1;SDS_P2;PMS_P1;PMS_P2;Temp;Humidity;BMP_temperature;BMP_pressure;BME280_temperature;BME280_humidity;BME280_pressure;Samples;Min_cycle;Max_cycle;Signal;HPM_P1;HPM_P2
2024/03/18 00:00:15;;;;;;;0.10;0.10;;;8.90;99.90;;;;;;4924115;29;20344;-84
2024/03/18 00:02:45;;;;;;;0.00;0.00;;;8.80;99.90;;;;;;4940560;29;20048;-86
2024/03/18 00:05:12;;;;;;;0.00;0.00;;;8.80;99.90;;;;;;4926001;29;20043;-84
2024/03/18 00:07:39;;;;;;;0.10;0.10;;;;;;;;;;4932648;29;20047;-82
2024/03/18 00:10:09;;;;;;;0.00;0.00;;;;;;;;;;4940401;29;20088;-81
2024/03/18 00:12:34;;;;;;;0.10;0.10;;;;;;;;;;4928496;29;20044;-87
2024/03/18 00:15:00;;;;;;;0.10;0.10;;;;;;;;;;4931177;29;20064;-81
2024/03/18 00:17:26;;;;;;;0.10;0.10;;;;;;;;;;4923024;29;20236;-82
2024/03/18 00:19:52;;;;;;;0.10;0.10;;;;;;;;;;4928307;29;20035;-83
2024/03/18 00:22:18;;;;;;;0.05;0.05;;;;;;;;;;4941807;29;21832;-82
2024/03/18 00:24:45;;;;;;;0.00;0.00;;;;;;;;;;4929734;29;20047;-83
2024/03/18 00:27:10;;;;;;;0.10;0.10;;;;;;;;;;4925465;29;20038;-80
2024/03/18 00:29:36;;;;;;;0.03;0.03;;;;;;;;;;4924085;29;20028;-85
2024/03/18 00:32:02;;;;;;;0.10;0.10;;;;;;;;;;4926718;29;20032;-84
2024/03/18 00:34:28;;;;;;;0.10;0.10;;;;;;;;;;4925877;29;20032;-83
2024/03/18 00:36:54;;;;;;;0.00;0.00;;;;;;;;;;4926277;29;20028;-83
2024/03/18 00:39:21;;;;;;;0.00;0.00;;;;;;;;;;4930762;29;20096;-84
2024/03/18 00:41:48;;;;;;;0.10;0.10;;;;;;;;;;4941860;29;20036;-83
2024/03/18 00:44:23;;;;;;;0.10;0.10;;;9.20;99.90;;;;;;4930959;29;20059;-82
2024/03/18 00:46:49;;;;;;;0.00;0.00;;;;;;;;;;4931059;29;20028;-85
2024/03/18 00:49:15;;;;;;;0.00;0.00;;;;;;;;;;4932199;29;20024;-86
2024/03/18 00:51:41;;;;;;;0.00;0.00;;;9.10;99.90;;;;;;4933129;29;20047;-87
2024/03/18 00:54:09;;;;;;;0.10;0.10;;;9.10;99.90;;;;;;4932302;29;20044;-86
2024/03/18 00:56:35;;;;;;;0.10;0.10;;;;;;;;;;4929673;29;20028;-85
2024/03/18 00:59:01;;;;;;;0.10;0.10;;;;;;;;;;4932579;29;20020;-85
2024/03/18 01:01:27;;;;;;;0.00;0.00;;;;;;;;;;4945291;29;21202;-82
2024/03/18 01:03:53;;;;;;;0.10;0.10;;;;;;;;;;4942979;29;20035;-83
2024/03/18 01:06:19;;;;;;;0.10;0.10;;;;;;;;;;4929475;29;20054;-83
2024/03/18 01:08:46;;;;;;;0.00;0.00;;;;;;;;;;4932403;29;20019;-84
2024/03/18 01:11:12;;;;;;;0.05;0.05;;;;;;;;;;4947898;29;20047;-83
2024/03/18 01:13:40;;;;;;;0.08;0.08;;;;;;;;;;4927876;29;20028;-85
2024/03/18 01:16:07;;;;;;;0.10;0.10;;;;;;;;;;4928336;29;20096;-85
2024/03/18 01:18:33;;;;;;;0.10;0.10;;;;;;;;;;4925646;29;20020;-85
2024/03/18 01:20:59;;;;;;;0.00;0.00;;;;;;;;;;4928001;29;20047;-86
2024/03/18 01:23:25;;;;;;;0.10;0.10;;;;;;;;;;4934469;29;20040;-84
2024/03/18 01:25:51;;;;;;;0.00;0.00;;;;;;;;;;4931615;29;20020;-84
2024/03/18 01:28:18;;;;;;;0.00;0.00;;;;;;;;;;4930239;29;20334;-85
2024/03/18 01:30:44;;;;;;;0.10;0.10;;;;;;;;;;4931079;29;20064;-84
2024/03/18 01:33:10;;;;;;;0.10;0.10;;;;;;;;;;4934012;29;20040;-86
2024/03/18 01:35:36;;;;;;;0.10;0.10;;;;;;;;;;4931436;29;20059;-82
2024/03/18 01:38:03;;;;;;;0.00;0.00;;;;;;;;;;4942326;29;20031;-85
2024/03/18 01:40:28;;;;;;;0.10;0.10;;;;;;;;;;4947831;29;20024;-86
2024/03/18 01:42:54;;;;;;;0.10;0.10;;;;;;;;;;4932785;29;20062;-86
2024/03/18 01:45:24;;;;;;;0.10;0.10;;;9.00;99.90;;;;;;4941014;29;20042;-85
2024/03/18 01:47:53;;;;;;;0.10;0.10;;;9.10;99.90;;;;;;4931076;29;20047;-86
2024/03/18 01:50:20;;;;;;;0.10;0.10;;;;;;;;;;4932414;29;20039;-84
2024/03/18 01:52:46;;;;;;;0.00;0.00;;;;;;;;;;4929650;29;20047;-86
2024/03/18 01:55:12;;;;;;;0.10;0.10;;;9.00;99.90;;;;;;4930995;29;20036;-85
2024/03/18 01:57:39;;;;;;;0.00;0.00;;;8.90;99.90;;;;;;4945670;29;20125;-82
2024/03/18 02:00:14;;;;;;;0.10;0.10;;;8.90;99.90;;;;;;4930627;29;20183;-84
2024/03/18 02:02:40;;;;;;;0.08;0.08;;;;;;;;;;4934831;29;20044;-83
2024/03/18 02:05:06;;;;;;;0.00;0.00;;;;;;;;;;4926300;29;20028;-84
2024/03/18 02:07:33;;;;;;;0.10;0.10;;;;;;;;;;4945447;29;20055;-85
2024/03/18 02:09:59;;;;;;;0.00;0.00;;;;;;;;;;4927100;29;20039;-84
2024/03/18 02:12:25;;;;;;;0.05;0.05;;;;;;;;;;4932131;29;20036;-82
2024/03/18 02:14:51;;;;;;;0.10;0.10;;;9.00;99.90;;;;;;4938828;29;20032;-83
2024/03/18 02:17:20;;;;;;;0.10;0.10;;;;;;;;;;4947230;28;20056;-84
2024/03/18 02:19:46;;;;;;;0.10;0.10;;;;;;;;;;4926711;29;20040;-84
2024/03/18 02:22:12;;;;;;;0.00;0.00;;;;;;;;;;4947613;29;20324;-88
2024/03/18 02:24:38;;;;;;;0.10;0.10;;;;;;;;;;4950093;29;20020;-82
2024/03/18 02:27:13;;;;;;;0.10;0.10;;;9.00;99.90;;;;;;4936641;29;20043;-84
2024/03/18 02:29:39;;;;;;;0.10;0.10;;;;;;;;;;4934076;29;20060;-83
2024/03/18 02:32:06;;;;;;;0.10;0.10;;;;;;;;;;4934383;29;20099;-84
2024/03/18 02:34:32;;;;;;;0.10;0.10;;;;;;;;;;4927409;29;20028;-84
2024/03/18 02:36:58;;;;;;;0.10;0.10;;;;;;;;;;4929527;29;20039;-84
2024/03/18 02:39:24;;;;;;;0.00;0.00;;;;;;;;;;4934245;29;20039;-83
2024/03/18 02:41:54;;;;;;;0.10;0.10;;;8.90;99.90;;;;;;4928187;29;20052;-83
2024/03/18 02:44:20;;;;;;;0.10;0.10;;;;;;;;;;4944845;28;21170;-85
2024/03/18 02:46:47;;;;;;;0.00;0.00;;;;;;;;;;4941923;29;20036;-85
2024/03/18 02:49:13;;;;;;;0.10;0.10;;;;;;;;;;4933296;29;20029;-85
2024/03/18 02:51:39;;;;;;;0.10;0.10;;;;;;;;;;4926295;29;20036;-84
2024/03/18 02:54:05;;;;;;;0.10;0.10;;;8.90;99.90;;;;;;4931911;29;20028;-88
2024/03/18 02:56:31;;;;;;;0.10;0.10;;;;;;;;;;4927918;29;20036;-84
2024/03/18 02:58:57;;;;;;;0.10;0.10;;;;;;;;;;4929295;29;20064;-84
2024/03/18 03:01:23;;;;;;;0.10;0.10;;;;;;;;;;4928150;29;20031;-83
2024/03/18 03:03:51;;;;;;;0.10;0.10;;;;;;;;;;4938550;28;20016;-86
2024/03/18 03:06:18;;;;;;;0.10;0.10;;;;;;;;;;4942074;29;20040;-86
2024/03/18 03:08:44;;;;;;;0.10;0.10;;;;;;;;;;4924498;29;20111;-85
2024/03/18 03:11:10;;;;;;;0.10;0.10;;;;;;;;;;4928175;29;20012;-83
2024/03/18 03:13:36;;;;;;;0.10;0.10;;;;;;;;;;4925355;29;20061;-84
2024/03/18 03:16:01;;;;;;;0.10;0.10;;;;;;;;;;4923315;29;20051;-83
2024/03/18 03:18:27;;;;;;;0.10;0.10;;;;;;;;;;4924355;29;20047;-86
2024/03/18 03:20:54;;;;;;;0.10;0.10;;;;;;;;;;4924905;29;20048;-83
2024/03/18 03:23:21;;;;;;;0.03;0.03;;;;;;;;;;4932945;29;20054;-88
2024/03/18 03:25:48;;;;;;;0.00;0.00;;;;;;;;;;4923924;29;20028;-84
2024/03/18 03:28:14;;;;;;;0.10;0.10;;;;;;;;;;4924883;29;20059;-83
2024/03/18 03:30:40;;;;;;;0.00;0.00;;;;;;;;;;4931041;29;20055;-83
2024/03/18 03:33:06;;;;;;;0.08;0.08;;;;;;;;;;4925020;29;20028;-86
2024/03/18 03:35:32;;;;;;;0.10;0.10;;;;;;;;;;4939363;29;20020;-85
2024/03/18 03:37:58;;;;;;;0.10;0.10;;;;;;;;;;4928178;29;20063;-86
2024/03/18 03:40:24;;;;;;;0.00;0.00;;;;;;;;;;4935450;29;20043;-84
2024/03/18 03:42:50;;;;;;;0.10;0.10;;;;;;;;;;4940407;29;20032;-83
2024/03/18 03:45:16;;;;;;;0.00;0.00;;;;;;;;;;4929973;29;20099;-84
2024/03/18 03:47:42;;;;;;;0.10;0.10;;;;;;;;;;4923834;29;20047;-86
2024/03/18 03:50:09;;;;;;;0.10;0.10;;;8.20;99.90;;;;;;4926556;29;20033;-85
2024/03/18 03:52:35;;;;;;;0.00;0.00;;;;;;;;;;4929607;29;20043;-86
2024/03/18 03:55:01;;;;;;;0.05;0.05;;;;;;;;;;4938200;29;20032;-83
2024/03/18 03:57:27;;;;;;;0.10;0.10;;;;;;;;;;4925716;29;20036;-83
2024/03/18 03:59:53;;;;;;;0.10;0.10;;;;;;;;;;4927692;29;20088;-84
2024/03/18 04:02:19;;;;;;;0.00;0.00;;;;;;;;;;4924603;29;20052;-83
2024/03/18 04:04:45;;;;;;;0.10;0.10;;;;;;;;;;4931698;29;20036;-84
2024/03/18 04:07:11;;;;;;;0.10;0.10;;;;;;;;;;4921754;29;20046;-83
2024/03/18 04:09:37;;;;;;;0.00;0.00;;;;;;;;;;4938303;29;20028;-85
2024/03/18 04:12:03;;;;;;;0.10;0.10;;;;;;;;;;4938162;29;20071;-86
2024/03/18 04:14:28;;;;;;;0.10;0.10;;;7.90;99.90;;;;;;4925746;29;20060;-81
2024/03/18 04:16:54;;;;;;;0.00;0.00;;;;;;;;;;4932427;29;20036;-85
2024/03/18 04:19:21;;;;;;;0.00;0.00;;;;;;;;;;4929167;29;20039;-83
2024/03/18 04:21:47;;;;;;;0.10;0.10;;;;;;;;;;4942766;29;20084;-84
2024/03/18 04:24:14;;;;;;;0.10;0.10;;;;;;;;;;4939459;29;20032;-84
2024/03/18 04:26:41;;;;;;;0.10;0.10;;;;;;;;;;4933776;29;20019;-84
2024/03/18 04:29:07;;;;;;;0.10;0.10;;;;;;;;;;4939266;29;20032;-85
2024/03/18 04:31:33;;;;;;;0.10;0.10;;;;;;;;;;4939761;29;20016;-87
2024/03/18 04:34:00;;;;;;;0.10;0.10;;;;;;;;;;4938751;29;20039;-85
2024/03/18 04:36:26;;;;;;;0.00;0.00;;;;;;;;;;4948077;29;20036;-85
2024/03/18 04:38:52;;;;;;;0.10;0.10;;;;;;;;;;4937941;29;20095;-82
2024/03/18 04:41:18;;;;;;;0.10;0.10;;;;;;;;;;4932336;29;20028;-85
2024/03/18 04:43:43;;;;;;;0.10;0.10;;;;;;;;;;4950745;29;20469;-87
2024/03/18 04:46:09;;;;;;;0.10;0.10;;;;;;;;;;4947323;29;20029;-87
2024/03/18 04:48:35;;;;;;;0.10;0.10;;;;;;;;;;4938529;29;20050;-88
2024/03/18 04:51:01;;;;;;;0.10;0.10;;;;;;;;;;4936506;29;20009;-82
2024/03/18 05:08:53;;;;;;;0.10;0.10;;;;;;;;;;4909278;29;20537;-90
2024/03/18 05:11:19;;;;;;;0.10;0.10;;;;;;;;;;4914109;29;20121;-91
2024/03/18 05:13:45;;;;;;;0.10;0.10;;;;;;;;;;4914240;29;20032;-92
2024/03/18 05:16:11;;;;;;;0.10;0.10;;;;;;;;;;4898430;29;20071;-90
2024/03/18 05:18:37;;;;;;;0.10;0.10;;;;;;;;;;4900524;29;20081;-90
2024/03/18 05:21:03;;;;;;;0.10;0.10;;;;;;;;;;4899054;29;20033;-89
2024/03/18 05:23:29;;;;;;;0.10;0.10;;;;;;;;;;4897376;29;20025;-88
2024/03/18 05:25:55;;;;;;;0.10;0.10;;;;;;;;;;4897008;29;20104;-90
2024/03/18 05:28:21;;;;;;;0.10;0.10;;;;;;;;;;4893633;29;20098;-91
2024/03/18 05:30:47;;;;;;;0.10;0.10;;;;;;;;;;4897192;29;20154;-90
2024/03/18 05:33:13;;;;;;;0.00;0.00;;;;;;;;;;4913311;29;20128;-90
2024/03/18 05:35:39;;;;;;;0.10;0.10;;;;;;;;;;4894208;29;20107;-90
2024/03/18 05:38:05;;;;;;;0.00;0.00;;;;;;;;;;4894637;29;20127;-91
2024/03/18 05:40:31;;;;;;;0.10;0.10;;;;;;;;;;4895072;29;20159;-91
2024/03/18 05:42:57;;;;;;;0.10;0.10;;;;;;;;;;4889685;29;20048;-91
2024/03/18 05:45:23;;;;;;;0.10;0.10;;;;;;;;;;4884937;29;20029;-90
2024/03/18 05:47:49;;;;;;;0.00;0.00;;;;;;;;;;4898435;29;20029;-91
2024/03/18 05:50:16;;;;;;;0.00;0.00;;;;;;;;;;4898784;29;20099;-91
2024/03/18 05:52:42;;;;;;;0.10;0.10;;;;;;;;;;4897625;29;20028;-90
2024/03/18 05:55:08;;;;;;;0.10;0.10;;;;;;;;;;4894860;29;20824;-90
2024/03/18 05:57:34;;;;;;;0.10;0.10;;;;;;;;;;4893405;29;20365;-90
2024/03/18 06:00:00;;;;;;;0.10;0.10;;;;;;;;;;4894201;29;20480;-90
2024/03/18 06:02:26;;;;;;;0.00;0.00;;;;;;;;;;4895714;29;20315;-90
2024/03/18 06:04:52;;;;;;;0.00;0.00;;;;;;;;;;4897166;29;20119;-90
2024/03/18 06:07:21;;;;;;;0.00;0.00;;;;;;;;;;4893875;29;20041;-90
2024/03/18 06:09:47;;;;;;;0.00;0.00;;;;;;;;;;4895585;29;20391;-91
2024/03/18 06:12:13;;;;;;;0.10;0.10;;;;;;;;;;4898835;29;20488;-90
2024/03/18 06:14:39;;;;;;;0.10;0.10;;;;;;;;;;4899890;29;20651;-91
2024/03/18 06:17:05;;;;;;;0.05;0.05;;;;;;;;;;4897287;29;20040;-90
2024/03/18 06:19:33;;;;;;;0.10;0.10;;;;;;;;;;4897642;29;20088;-90
2024/03/18 06:22:05;;;;;;;0.10;0.10;;;8.30;99.90;;;;;;4900421;29;20048;-90
2024/03/18 06:25:54;;;;;;;0.10;0.10;;;;;;;;;;4915694;29;20097;-92
2024/03/18 06:27:17;;;;;;;0.03;0.03;;;;;;;;;;4911406;29;20135;-90
2024/03/18 06:29:43;;;;;;;0.10;0.10;;;;;;;;;;4904664;29;20492;-90
2024/03/18 06:32:10;;;;;;;0.10;0.10;;;;;;;;;;4905143;29;20119;-90
2024/03/18 06:34:36;;;;;;;0.10;0.10;;;;;;;;;;4902451;29;20407;-90
2024/03/18 06:37:02;;;;;;;0.10;0.10;;;;;;;;;;4898829;29;20033;-92
2024/03/18 06:39:28;;;;;;;0.10;0.10;;;;;;;;;;4897354;29;20047;-91
2024/03/18 06:41:54;;;;;;;0.10;0.10;;;;;;;;;;4895435;29;20131;-91
2024/03/18 06:44:20;;;;;;;0.00;0.00;;;;;;;;;;4897438;29;20112;-92
2024/03/18 06:46:47;;;;;;;0.10;0.10;;;;;;;;;;4894050;29;20188;-91
2024/03/18 06:49:13;;;;;;;0.10;0.10;;;;;;;;;;4895475;29;20449;-91
2024/03/18 06:51:38;;;;;;;0.10;0.10;;;;;;;;;;4898044;29;20035;-91
2024/03/18 06:54:04;;;;;;;0.00;0.00;;;;;;;;;;4898920;29;20084;-89
2024/03/18 06:56:30;;;;;;;0.10;0.10;;;;;;;;;;4891037;29;20029;-90
2024/03/18 06:58:56;;;;;;;0.10;0.10;;;;;;;;;;4891946;29;20041;-91
2024/03/18 07:01:24;;;;;;;0.10;0.10;;;;;;;;;;4888760;29;20060;-91
2024/03/18 07:03:50;;;;;;;0.00;0.00;;;;;;;;;;4891976;29;20028;-90
2024/03/18 07:06:16;;;;;;;0.10;0.10;;;;;;;;;;4893592;29;20556;-91
2024/03/18 07:08:42;;;;;;;0.00;0.00;;;;;;;;;;4891900;29;20036;-91
2024/03/18 07:11:09;;;;;;;0.10;0.10;;;;;;;;;;4894142;29;20033;-91
2024/03/18 07:13:36;;;;;;;0.00;0.00;;;;;;;;;;4912118;29;20043;-92
2024/03/18 07:16:02;;;;;;;0.10;0.10;;;;;;;;;;4894649;29;20099;-91
2024/03/18 07:18:28;;;;;;;0.10;0.10;;;;;;;;;;4893313;29;20064;-91
2024/03/18 07:20:55;;;;;;;0.08;0.08;;;;;;;;;;4892754;29;20036;-91
2024/03/18 07:23:22;;;;;;;0.10;0.10;;;;;;;;;;4898080;29;20139;-91
2024/03/18 07:25:49;;;;;;;0.00;0.00;;;;;;;;;;4896174;29;20365;-91
2024/03/18 07:28:15;;;;;;;0.10;0.10;;;;;;;;;;4905528;29;20040;-91
2024/03/18 07:30:45;;;;;;;0.00;0.00;;;9.60;99.90;;;;;;4900075;29;20036;-91
2024/03/18 07:33:11;;;;;;;0.00;0.00;;;;;;;;;;4897636;29;20036;-91
2024/03/18 07:35:37;;;;;;;0.00;0.00;;;;;;;;;;4892156;29;20036;-91
2024/03/18 07:38:03;;;;;;;0.10;0.10;;;;;;;;;;4894419;29;20028;-91
2024/03/18 07:40:29;;;;;;;0.00;0.00;;;;;;;;;;4894070;29;20291;-91
2024/03/18 07:42:55;;;;;;;0.00;0.00;;;;;;;;;;4893138;29;20033;-91
2024/03/18 07:45:20;;;;;;;0.00;0.00;;;;;;;;;;4892603;29;20160;-91
2024/03/18 07:47:46;;;;;;;0.00;0.00;;;9.90;99.90;;;;;;4905934;29;20127;-91
2024/03/18 07:50:12;;;;;;;0.10;0.10;;;;;;;;;;4890437;29;20044;-91
2024/03/18 07:52:41;;;;;;;0.00;0.00;;;;;;;;;;4899360;29;20035;-90
2024/03/18 07:55:07;;;;;;;0.00;0.00;;;;;;;;;;4900723;29;20047;-91
2024/03/18 07:57:33;;;;;;;0.00;0.00;;;;;;;;;;4893116;29;20028;-91
2024/03/18 07:59:59;;;;;;;0.00;0.00;;;;;;;;;;4895341;29;20499;-91
2024/03/18 08:02:25;;;;;;;0.00;0.00;;;;;;;;;;4892995;29;20406;-91
2024/03/18 08:04:52;;;;;;;0.00;0.00;;;10.20;99.90;;;;;;4897778;29;20511;-91
2024/03/18 08:07:18;;;;;;;0.00;0.00;;;;;;;;;;4895158;29;20032;-90
2024/03/18 08:09:45;;;;;;;0.00;0.00;;;;;;;;;;4904359;29;20143;-91
2024/03/18 08:12:11;;;;;;;0.00;0.00;;;;;;;;;;4893830;29;20048;-90
2024/03/18 08:14:41;;;;;;;0.00;0.00;;;;;;;;;;4895767;29;20032;-91
2024/03/18 08:17:08;;;;;;;;;;;7.90;99.90;;;;;;4897167;29;20088;-91
2024/03/18 08:19:34;;;;;;;0.00;0.00;;;;;;;;;;4891040;29;19967;-90
2024/03/18 08:22:00;;;;;;;0.03;0.03;;;;;;;;;;4910036;29;20025;-90
2024/03/18 08:24:26;;;;;;;0.10;0.10;;;;;;;;;;4890309;29;20778;-90
2024/03/18 08:26:54;;;;;;;0.00;0.00;;;;;;;;;;4895117;29;20110;-91
2024/03/18 08:29:20;;;;;;;0.10;0.10;;;;;;;;;;4890863;29;20040;-90
2024/03/18 08:31:46;;;;;;;0.00;0.00;;;;;;;;;;4891505;29;20037;-91
2024/03/18 08:34:12;;;;;;;0.00;0.00;;;;;;;;;;4893320;29;20069;-91
2024/03/18 08:36:38;;;;;;;0.00;0.00;;;;;;;;;;4892797;29;20033;-91
2024/03/18 08:39:04;;;;;;;0.00;0.00;;;;;;;;;;4895592;29;20115;-91
2024/03/18 08:41:30;;;;;;;0.00;0.00;;;;;;;;;;4901455;29;20040;-91
2024/03/18 08:43:56;;;;;;;0.00;0.00;;;;;;;;;;4892505;29;20032;-91
2024/03/18 08:46:22;;;;;;;0.10;0.10;;;;;;;;;;4893632;29;20032;-91
2024/03/18 08:48:49;;;;;;;0.00;0.00;;;;;;;;;;4893371;29;20034;-90
2024/03/18 08:51:15;;;;;;;0.00;0.00;;;;;;;;;;4896528;29;20032;-91
2024/03/18 08:53:43;;;;;;;0.08;0.08;;;;;;;;;;4897094;29;20087;-90
2024/03/18 08:56:10;;;;;;;0.00;0.00;;;;;;;;;;4892460;29;20041;-92
2024/03/18 08:58:37;;;;;;;0.00;0.00;;;;;;;;;;4893171;29;20371;-92
2024/03/18 09:01:03;;;;;;;0.10;0.10;;;;;;;;;;4892145;29;20719;-91
2024/03/18 09:03:29;;;;;;;0.10;0.10;;;;;;;;;;4897764;29;20032;-90
2024/03/18 09:05:55;;;;;;;0.03;0.03;;;;;;;;;;4901141;29;20028;-91
2024/03/18 09:08:22;;;;;;;0.00;0.00;;;;;;;;;;4899011;29;20085;-91
2024/03/18 09:10:48;;;;;;;0.03;0.03;;;;;;;;;;4893650;29;20025;-91
2024/03/18 09:13:14;;;;;;;0.10;0.10;;;;;;;;;;4889350;29;20075;-90
2024/03/18 09:15:40;;;;;;;0.00;0.00;;;;;;;;;;4895154;29;20036;-91
2024/03/18 09:18:06;;;;;;;0.08;0.08;;;;;;;;;;4901089;29;20570;-91
2024/03/18 09:20:32;;;;;;;0.00;0.00;;;;;;;;;;4894698;29;20033;-92
2024/03/18 09:22:58;;;;;;;0.10;0.10;;;;;;;;;;4892595;29;20025;-93
2024/03/18 09:25:24;;;;;;;0.10;0.10;;;;;;;;;;4894034;29;20032;-91
2024/03/18 09:27:50;;;;;;;0.00;0.00;;;;;;;;;;4895480;29;20032;-92
2024/03/18 09:30:16;;;;;;;0.00;0.00;;;;;;;;;;4895296;29;20033;-92
2024/03/18 09:32:43;;;;;;;0.10;0.10;;;;;;;;;;4895083;29;20065;-91
2024/03/18 09:35:09;;;;;;;0.00;0.00;;;;;;;;;;4895728;29;20056;-91
2024/03/18 09:37:35;;;;;;;0.00;0.00;;;;;;;;;;4896955;29;20412;-92
2024/03/18 09:40:01;;;;;;;0.00;0.00;;;;;;;;;;4902196;29;20099;-91
2024/03/18 09:42:31;;;;;;;0.00;0.00;;;;;;;;;;4893834;29;20185;-91
2024/03/18 09:44:57;;;;;;;0.10;0.10;;;;;;;;;;4896544;29;20036;-91
2024/03/18 09:47:24;;;;;;;0.00;0.00;;;11.10;99.90;;;;;;4896215;29;20040;-91
2024/03/18 09:49:53;;;;;;;0.00;0.00;;;11.10;99.90;;;;;;4892638;29;20020;-91
2024/03/18 09:52:20;;;;;;;0.00;0.00;;;11.10;99.90;;;;;;4894688;29;20080;-91
2024/03/18 09:54:47;;;;;;;0.00;0.00;;;;;;;;;;4894235;29;20033;-91
2024/03/18 09:57:18;;;;;;;0.00;0.00;;;11.30;99.90;;;;;;4893683;29;20115;-90
2024/03/18 09:59:44;;;;;;;0.00;0.00;;;;;;;;;;4898491;29;20057;-91
2024/03/18 10:02:16;;;;;;;0.00;0.00;;;11.40;99.90;;;;;;4897786;29;20056;-91
2024/03/18 10:04:46;;;;;;;0.00;0.00;;;11.50;99.90;;;;;;4896797;29;20081;-92
2024/03/18 10:07:13;;;;;;;;;;;11.40;99.90;;;;;;4899656;29;20479;-92
2024/03/18 10:09:40;;;;;;;0.10;0.10;;;11.60;99.90;;;;;;4899979;29;19998;-92
2024/03/18 10:12:10;;;;;;;0.00;0.00;;;11.70;99.90;;;;;;4897995;29;20497;-91
2024/03/18 10:14:36;;;;;;;0.00;0.00;;;;;;;;;;4896134;29;20102;-92
2024/03/18 10:17:06;;;;;;;0.00;0.00;;;;;;;;;;4895780;29;20067;-91
2024/03/18 10:19:32;;;;;;;;;;;11.70;99.90;;;;;;4897603;29;20480;-92
2024/03/18 10:21:58;;;;;;;0.00;0.00;;;;;;;;;;4896272;29;19922;-91
2024/03/18 10:24:24;;;;;;;0.00;0.00;;;;;;;;;;4896533;29;20096;-92
2024/03/18 10:26:51;;;;;;;0.00;0.00;;;;;;;;;;4896247;29;20027;-91
2024/03/18 10:29:17;;;;;;;0.00;0.00;;;;;;;;;;4895457;29;20037;-92
2024/03/18 10:31:43;;;;;;;0.10;0.10;;;;;;;;;;4892573;29;20036;-92
2024/03/18 10:34:19;;;;;;;0.00;0.00;;;12.10;99.90;;;;;;4894394;29;20045;-92
2024/03/18 10:36:45;;;;;;;0.00;0.00;;;;;;;;;;4906073;29;20048;-92
2024/03/18 10:39:16;;;;;;;0.00;0.00;;;12.20;99.90;;;;;;4898362;29;20507;-91
2024/03/18 10:41:44;;;;;;;0.00;0.00;;;12.20;99.90;;;;;;4896045;29;20164;-91
2024/03/18 10:44:17;;;;;;;0.00;0.00;;;12.10;99.90;;;;;;4888957;29;20044;-91
2024/03/18 10:46:44;;;;;;;0.00;0.00;;;12.10;99.90;;;;;;4904156;29;20032;-91
2024/03/18 10:49:19;;;;;;;0.00;0.00;;;12.10;99.90;;;;;;4894507;29;20040;-91
2024/03/18 10:51:49;;;;;;;0.00;0.00;;;12.20;99.90;;;;;;4901757;29;20123;-91
2024/03/18 10:54:17;;;;;;;0.00;0.00;;;12.10;99.90;;;;;;4893057;29;20040;-91
2024/03/18 10:56:46;;;;;;;0.00;0.00;;;12.40;99.90;;;;;;4893408;29;20041;-91
2024/03/18 10:59:14;;;;;;;0.00;0.00;;;12.30;99.90;;;;;;4899175;29;20114;-91
2024/03/18 11:01:41;;;;;;;0.00;0.00;;;;;;;;;;4898752;29;20056;-91
2024/03/18 11:04:20;;;;;;;0.00;0.00;;;12.40;99.90;;;;;;4910441;29;20243;-92
2024/03/18 11:06:51;;;;;;;0.00;0.00;;;12.30;99.90;;;;;;4917592;29;20016;-93
2024/03/18 11:09:18;;;;;;;0.00;0.00;;;;;;;;;;4920405;29;20055;-91
2024/03/18 11:11:44;;;;;;;0.00;0.00;;;;;;;;;;4910391;29;20033;-91
2024/03/18 11:14:13;;;;;;;0.00;0.00;;;;;;;;;;4893385;29;20036;-91
2024/03/18 11:16:44;;;;;;;0.00;0.00;;;12.10;99.90;;;;;;4894140;29;20029;-91
2024/03/18 11:19:16;;;;;;;0.00;0.00;;;12.10;99.90;;;;;;4892405;29;20033;-91
2024/03/18 11:26:56;;;;;;;0.00;0.00;;;11.90;99.90;;;;;;4917759;29;20049;-85
2024/03/18 11:29:28;;;;;;;0.00;0.00;;;11.80;99.90;;;;;;4910939;29;20032;-86
2024/03/18 11:31:54;;;;;;;0.00;0.00;;;;;;;;;;4913341;29;20024;-86
2024/03/18 11:34:24;;;;;;;0.00;0.00;;;8.30;99.90;;;;;;4908883;29;20039;-87
2024/03/18 11:36:50;;;;;;;0.00;0.00;;;;;;;;;;4910501;29;20314;-86
2024/03/18 11:39:17;;;;;;;0.00;0.00;;;;;;;;;;4911725;29;20084;-88
2024/03/18 11:41:43;;;;;;;0.00;0.00;;;;;;;;;;4912871;29;20020;-86
2024/03/18 11:44:13;;;;;;;0.00;0.00;;;11.70;99.90;;;;;;4911617;29;20049;-86
2024/03/18 11:46:39;;;;;;;0.00;0.00;;;;;;;;;;4911169;29;20016;-85
2024/03/18 11:49:10;;;;;;;0.00;0.00;;;11.70;99.90;;;;;;4910105;29;20037;-82
2024/03/18 11:51:36;;;;;;;0.00;0.00;;;;;;;;;;4909715;29;20518;-84
2024/03/18 11:54:08;;;;;;;0.00;0.00;;;;;;;;;;4913514;29;20025;-88
2024/03/18 11:56:34;;;;;;;0.00;0.00;;;;;;;;;;4912528;29;20038;-84
2024/03/18 11:59:02;;;;;;;0.00;0.00;;;;;;;;;;4913526;29;20035;-87
2024/03/18 12:01:28;;;;;;;0.00;0.00;;;;;;;;;;4910633;29;20032;-85
2024/03/18 12:03:54;;;;;;;0.00;0.00;;;;;;;;;;4907334;29;20041;-83
2024/03/18 12:06:20;;;;;;;0.00;0.00;;;;;;;;;;4910525;29;20045;-82
2024/03/18 12:08:47;;;;;;;0.00;0.00;;;;;;;;;;4912405;29;20033;-83
2024/03/18 12:11:13;;;;;;;0.00;0.00;;;;;;;;;;4907329;29;20036;-85
2024/03/18 12:13:39;;;;;;;0.00;0.00;;;;;;;;;;4906499;29;20040;-87
2024/03/18 12:16:06;;;;;;;0.00;0.00;;;;;;;;;;4907515;29;20025;-85
2024/03/18 12:18:32;;;;;;;0.00;0.00;;;;;;;;;;4912286;29;20024;-82
2024/03/18 12:20:58;;;;;;;0.00;0.00;;;;;;;;;;4912955;29;20088;-86
2024/03/18 12:29:03;;;;;;;0.00;0.00;;;;;;;;;;4907703;29;20042;-85
2024/03/18 12:31:39;;;;;;;0.00;0.00;;;12.20;99.90;;;;;;4907749;29;20020;-83
2024/03/18 12:34:20;;;;;;;0.00;0.00;;;12.20;99.90;;;;;;4905352;29;20184;-88
2024/03/18 12:37:21;;;;;;;0.00;0.00;;;12.30;99.90;;;;;;4908934;29;20033;-86
2024/03/18 12:39:47;;;;;;;0.00;0.00;;;;;;;;;;4907644;29;20033;-88
2024/03/18 12:45:32;;;;;;;;;;;12.20;99.90;;;;;;4890371;29;20066;-88
2024/03/18 12:47:58;;;;;;;0.00;0.00;;;;;;;;;;4910044;29;19912;-90
2024/03/18 12:50:27;;;;;;;0.00;0.00;;;;;;;;;;4908755;29;20036;-88
2024/03/18 12:52:53;;;;;;;0.00;0.00;;;;;;;;;;4907311;29;20025;-88
2024/03/18 12:55:19;;;;;;;0.00;0.00;;;;;;;;;;4904036;29;20032;-88
2024/03/18 12:57:45;;;;;;;0.00;0.00;;;;;;;;;;4909980;29;20039;-89
2024/03/18 13:00:31;;;;;;;0.00;0.00;;;;;;;;;;4909189;29;20033;-87
2024/03/18 13:03:52;;;;;;;0.00;0.00;;;12.80;99.90;;;;;;4910252;29;20033;-89
2024/03/18 13:09:49;;;;;;;0.00;0.00;;;12.90;99.90;;;;;;4911540;29;20037;-85
2024/03/18 13:12:41;;;;;;;0.00;0.00;;;12.90;99.90;;;;;;4892678;29;20041;-88
2024/03/18 13:15:14;;;;;;;0.00;0.00;;;12.90;99.90;;;;;;4907873;29;20047;-88
2024/03/18 13:17:43;;;;;;;0.00;0.00;;;12.90;99.90;;;;;;4907857;29;20037;-86
2024/03/18 13:20:21;;;;;;;0.00;0.00;;;12.90;99.90;;;;;;4906765;29;20040;-88
2024/03/18 13:22:48;;;;;;;0.00;0.00;;;;;;;;;;4906659;29;20080;-87
2024/03/18 13:25:55;;;;;;;0.00;0.00;;;12.80;99.90;;;;;;4873326;29;1042648;-89
2024/03/18 13:28:24;;;;;;;0.00;0.00;;;;;;;;;;4910751;29;20088;-87
2024/03/18 13:30:51;;;;;;;0.00;0.00;;;;;;;;;;4910516;29;20546;-84
2024/03/18 13:33:21;;;;;;;0.00;0.00;;;13.10;99.90;;;;;;4912037;29;20072;-88
2024/03/18 13:35:47;;;;;;;0.00;0.00;;;;;;;;;;4911864;29;20096;-87
2024/03/18 13:38:15;;;;;;;0.00;0.00;;;13.20;99.90;;;;;;4906571;29;20499;-85
2024/03/18 13:40:42;;;;;;;0.00;0.00;;;;;;;;;;4909229;29;20029;-90
2024/03/18 13:43:13;;;;;;;0.00;0.00;;;;;;;;;;4908677;29;20083;-86
2024/03/18 13:45:39;;;;;;;0.00;0.00;;;;;;;;;;4917254;29;20088;-89
2024/03/18 13:48:06;;;;;;;0.00;0.00;;;;;;;;;;4905448;29;20029;-89
2024/03/18 13:50:33;;;;;;;0.00;0.00;;;;;;;;;;4909288;29;20025;-89
2024/03/18 13:52:59;;;;;;;0.00;0.00;;;;;;;;;;4922059;29;20032;-86
2024/03/18 13:55:26;;;;;;;0.00;0.00;;;;;;;;;;4909376;29;20035;-88
2024/03/18 13:57:52;;;;;;;0.00;0.00;;;;;;;;;;4904751;29;20123;-85
2024/03/18 14:00:21;;;;;;;0.00;0.00;;;13.30;99.90;;;;;;4911075;29;20369;-86
2024/03/18 14:02:47;;;;;;;0.00;0.00;;;;;;;;;;4907892;29;20025;-83
2024/03/18 14:05:14;;;;;;;0.00;0.00;;;;;;;;;;4908545;29;20096;-85
2024/03/18 14:07:41;;;;;;;0.00;0.00;;;;;;;;;;4899373;29;20120;-89
2024/03/18 14:10:07;;;;;;;0.00;0.00;;;;;;;;;;4903308;29;20036;-83
2024/03/18 14:12:33;;;;;;;0.00;0.00;;;;;;;;;;4909593;29;20065;-88
2024/03/18 14:15:00;;;;;;;0.00;0.00;;;;;;;;;;4907844;29;20037;-89
2024/03/18 14:17:26;;;;;;;0.00;0.00;;;;;;;;;;4914195;29;20047;-90
2024/03/18 14:19:52;;;;;;;0.00;0.00;;;;;;;;;;4904855;29;20484;-89
2024/03/18 14:22:18;;;;;;;0.00;0.00;;;;;;;;;;4906500;29;20125;-90
2024/03/18 14:24:47;;;;;;;0.00;0.00;;;;;;;;;;4908543;29;20033;-88
2024/03/18 14:27:13;;;;;;;0.00;0.00;;;;;;;;;;4907007;29;20033;-90
2024/03/18 14:29:39;;;;;;;0.00;0.00;;;;;;;;;;4907910;29;20036;-88
2024/03/18 14:32:06;;;;;;;0.00;0.00;;;;;;;;;;4903848;29;20025;-90
2024/03/18 14:34:31;;;;;;;0.00;0.00;;;;;;;;;;4905276;29;20414;-88
2024/03/18 14:36:59;;;;;;;0.00;0.00;;;;;;;;;;4908903;29;20033;-90
2024/03/18 14:39:25;;;;;;;0.00;0.00;;;;;;;;;;4902392;29;20025;-90
2024/03/18 14:41:51;;;;;;;0.00;0.00;;;;;;;;;;4907269;29;20036;-88
2024/03/18 14:44:17;;;;;;;0.00;0.00;;;;;;;;;;4904894;29;20045;-89
2024/03/18 14:46:43;;;;;;;0.00;0.00;;;;;;;;;;4907485;29;20024;-86
2024/03/18 14:49:09;;;;;;;0.00;0.00;;;;;;;;;;4906611;29;20032;-86
2024/03/18 14:51:35;;;;;;;0.00;0.00;;;;;;;;;;4903808;29;20036;-87
2024/03/18 14:54:01;;;;;;;0.00;0.00;;;;;;;;;;4921250;29;20504;-86